Home > Products > Valid Products > TAF

000
FTUS45 KGGW 230500
TAFGDV
TAF
KGDV 230520Z 2306/2406 VRB05KT P6SM BKN110
     FM231800 10013KT P6SM VCSH BKN060
     FM240100 VRB06KT P6SM VCSH OVC070
      AMD LTD TO CLD VIS AND WIND=



000
FTUS45 KGGW 230500
TAFGDV
TAF
KGDV 230520Z 2306/2406 VRB05KT P6SM BKN110
     FM231800 10013KT P6SM VCSH BKN060
     FM240100 VRB06KT P6SM VCSH OVC070
      AMD LTD TO CLD VIS AND WIND=



000
FTUS45 KGGW 230500
TAFOLF
TAF
KOLF 230520Z 2306/2406 VRB06KT P6SM BKN080
     FM231800 09013KT P6SM BKN080
     FM240200 VRB05KT P6SM BKN080=



000
FTUS45 KGGW 230500
TAFSDY
TAF
KSDY 230520Z 2306/2406 VRB03KT P6SM BKN110
     FM231800 12012KT P6SM BKN070
     FM240100 11010KT P6SM VCSH OVC050
      AMD LTD TO CLD VIS AND WIND=



000
FTUS45 KGGW 230500
TAFGGW
TAF
KGGW 230520Z 2306/2406 09010KT P6SM BKN090
     FM231600 10016G24KT P6SM BKN090
     FM240200 10010KT P6SM BKN080=



000
FTUS45 KGGW 230500
TAFOLF
TAF
KOLF 230520Z 2306/2406 VRB06KT P6SM BKN080
     FM231800 09013KT P6SM BKN080
     FM240200 VRB05KT P6SM BKN080=



000
FTUS45 KGGW 230200 AAA
TAFGGW
TAF AMD
KGGW 230219Z 2302/2324 10008KT P6SM SCT080 SCT250
     FM231800 10016G24KT P6SM BKN090=



000
FTUS45 KGGW 230200 RRA
TAFGDV
TAF
KGDV 230219Z 2302/2324 14009KT P6SM BKN070
     FM230900 VRB05KT P6SM BKN100
     FM231500 09009KT P6SM BKN040
     FM231800 09013KT P6SM VCSH BKN060
      AMD LTD TO CLD VIS AND WIND=



000
FTUS45 KGGW 230200 RRA
TAFGDV
TAF
KGDV 230219Z 2302/2324 14009KT P6SM BKN070
     FM230900 VRB05KT P6SM BKN100
     FM231500 09009KT P6SM BKN040
     FM231800 09013KT P6SM VCSH BKN060
      AMD LTD TO CLD VIS AND WIND=



000
FTUS45 KGGW 222300
TAFGGW
TAF
KGGW 222320Z 2300/2324 12015G23KT P6SM BKN080
     FM230300 11010KT P6SM BKN080
     FM231800 10016G24KT P6SM BKN090=



000
FTUS45 KGGW 222300
TAFSDY
TAF
KSDY 222320Z 2300/2324 14014KT P6SM BKN080
     FM230300 14009KT P6SM BKN080
     FM230900 VRB04KT P6SM BKN080
     FM231500 10008KT P6SM BKN070
     FM231800 10012KT P6SM BKN060
      AMD LTD TO CLD VIS AND WIND=



000
FTUS45 KGGW 222300
TAFGDV
TAF
KGDV 222320Z 2300/2324 14015G23KT P6SM BKN080
     FM230300 14010KT P6SM BKN070
     FM230900 VRB05KT P6SM BKN100
     FM231500 09009KT P6SM BKN040
     FM231800 09013KT P6SM VCSH BKN060
      AMD LTD TO CLD VIS AND WIND=



000
FTUS45 KGGW 222300
TAFOLF
TAF
KOLF 222320Z 2300/2324 13013KT P6SM BKN090
     FM230300 12008KT P6SM BKN080
     FM231800 09013KT P6SM BKN080=



000
FTUS45 KGGW 222300
TAFGDV
TAF
KGDV 222320Z 2300/2324 14015G23KT P6SM BKN080
     FM230300 14010KT P6SM BKN070
     FM230900 VRB05KT P6SM BKN100
     FM231500 09009KT P6SM BKN040
     FM231800 09013KT P6SM VCSH BKN060
      AMD LTD TO CLD VIS AND WIND=



000
FTUS45 KGGW 222300
TAFOLF
TAF
KOLF 222320Z 2300/2324 13013KT P6SM BKN090
     FM230300 12008KT P6SM BKN080
     FM231800 09013KT P6SM BKN080=



000
FTUS45 KGGW 222300
TAFGGW
TAF
KGGW 222320Z 2300/2324 12015G23KT P6SM BKN080
     FM230300 11010KT P6SM BKN080
     FM231800 10016G24KT P6SM BKN090=



000
FTUS45 KGGW 222300
TAFOLF
TAF
KOLF 222320Z 2300/2324 13013KT P6SM BKN090
     FM230300 12008KT P6SM BKN080
     FM231800 09013KT P6SM BKN080=



000
FTUS45 KGGW 222300
TAFGDV
TAF
KGDV 222320Z 2300/2324 14015G23KT P6SM BKN080
     FM230300 14010KT P6SM BKN070
     FM230900 VRB05KT P6SM BKN100
     FM231500 09009KT P6SM BKN040
     FM231800 09013KT P6SM VCSH BKN060
      AMD LTD TO CLD VIS AND WIND=



000
FTUS45 KGGW 222300
TAFSDY
TAF
KSDY 222320Z 2300/2324 14014KT P6SM BKN080
     FM230300 14009KT P6SM BKN080
     FM230900 VRB04KT P6SM BKN080
     FM231500 10008KT P6SM BKN070
     FM231800 10012KT P6SM BKN060
      AMD LTD TO CLD VIS AND WIND=



000
FTUS45 KGGW 222300
TAFGDV
TAF
KGDV 222320Z 2300/2324 14015G23KT P6SM BKN080
     FM230300 14010KT P6SM BKN070
     FM230900 VRB05KT P6SM BKN100
     FM231500 09009KT P6SM BKN040
     FM231800 09013KT P6SM VCSH BKN060
      AMD LTD TO CLD VIS AND WIND=



000
FTUS45 KGGW 222300
TAFOLF
TAF
KOLF 222320Z 2300/2324 13013KT P6SM BKN090
     FM230300 12008KT P6SM BKN080
     FM231800 09013KT P6SM BKN080=



000
FTUS45 KGGW 221700
TAFGGW
TAF
KGGW 221720Z 2218/2318 12019G27KT P6SM SCT080
     FM230000 12017KT P6SM BKN080
     FM230900 09009KT P6SM BKN060=



000
FTUS45 KGGW 221700
TAFGDV
TAF
KGDV 221720Z 2218/2318 13017KT P6SM SCT080
     FM230000 13017KT P6SM BKN080
     FM230300 12009KT P6SM BKN080
     FM230600 VRB06KT P6SM SCT090
     FM231200 VRB06KT P6SM BKN090
      AMD LTD TO CLD VIS AND WIND=



000
FTUS45 KGGW 221700
TAFOLF
TAF
KOLF 221720Z 2218/2318 12014KT P6SM SCT220
     FM230000 12014KT P6SM BKN090
     FM230300 10009KT P6SM BKN080=



000
FTUS45 KGGW 221700
TAFGDV
TAF
KGDV 221720Z 2218/2318 13017KT P6SM SCT080
     FM230000 13017KT P6SM BKN080
     FM230300 12009KT P6SM BKN080
     FM230600 VRB06KT P6SM SCT090
     FM231200 VRB06KT P6SM BKN090
      AMD LTD TO CLD VIS AND WIND=



000
FTUS45 KGGW 221700
TAFGDV
TAF
KGDV 221720Z 2218/2318 13017KT P6SM SCT080
     FM230000 13017KT P6SM BKN080
     FM230300 12009KT P6SM BKN080
     FM230600 VRB06KT P6SM SCT090
     FM231200 VRB06KT P6SM BKN090
      AMD LTD TO CLD VIS AND WIND=



000
FTUS45 KGGW 221700
TAFGGW
TAF
KGGW 221720Z 2218/2318 12019G27KT P6SM SCT080
     FM230000 12017KT P6SM BKN080
     FM230900 09009KT P6SM BKN060=



000
FTUS45 KGGW 221700
TAFSDY
TAF
KSDY 221720Z 2218/2318 13016KT P6SM FEW220
     FM230000 13015KT P6SM BKN080
     FM230300 12009KT P6SM BKN080
     FM230900 VRB04KT P6SM BKN080
      AMD LTD TO CLD VIS AND WIND=



000
FTUS45 KGGW 221700
TAFGDV
TAF
KGDV 221720Z 2218/2318 13017KT P6SM SCT080
     FM230000 13017KT P6SM BKN080
     FM230300 12009KT P6SM BKN080
     FM230600 VRB06KT P6SM SCT090
     FM231200 VRB06KT P6SM BKN090
      AMD LTD TO CLD VIS AND WIND=



000
FTUS45 KGGW 221700
TAFOLF
TAF
KOLF 221720Z 2218/2318 12014KT P6SM SCT220
     FM230000 12014KT P6SM BKN090
     FM230300 10009KT P6SM BKN080=



000
FTUS45 KGGW 221700
TAFOLF
TAF
KOLF 221720Z 2218/2318 12014KT P6SM SCT220
     FM230000 12014KT P6SM BKN090
     FM230300 10009KT P6SM BKN080=



000
FTUS45 KGGW 221700
TAFSDY
TAF
KSDY 221720Z 2218/2318 13016KT P6SM FEW220
     FM230000 13015KT P6SM BKN080
     FM230300 12009KT P6SM BKN080
     FM230900 VRB04KT P6SM BKN080
      AMD LTD TO CLD VIS AND WIND=



000
FTUS45 KGGW 221700
TAFOLF
TAF
KOLF 221720Z 2218/2318 12014KT P6SM SCT220
     FM230000 12014KT P6SM BKN090
     FM230300 10009KT P6SM BKN080=



000
FTUS45 KGGW 221100
TAFGDV
TAF
KGDV 221128Z 2212/2312 VRB05KT P6SM FEW250
     FM221500 12012KT P6SM FEW250
     FM230000 13017KT P6SM BKN170
     FM230300 12009KT P6SM BKN170
     FM230600 VRB06KT P6SM SCT170
      AMD LTD TO CLD VIS AND WIND=



000
FTUS45 KGGW 221100
TAFOLF
TAF
KOLF 221128Z 2212/2312 VRB05KT P6SM SKC
     FM221500 10010KT P6SM SKC
     FM230000 12014KT P6SM BKN170
     FM230300 10009KT P6SM BKN170=



000
FTUS45 KGGW 221100
TAFOLF
TAF
KOLF 221128Z 2212/2312 VRB05KT P6SM SKC
     FM221500 10010KT P6SM SKC
     FM230000 12014KT P6SM BKN170
     FM230300 10009KT P6SM BKN170=



000
FTUS45 KGGW 221100
TAFSDY
TAF
KSDY 221128Z 2212/2312 VRB04KT P6SM SKC
     FM221500 13010KT P6SM SKC
     FM230000 13015KT P6SM BKN170
     FM230300 12009KT P6SM BKN170
     FM230900 VRB04KT P6SM BKN180
      AMD LTD TO CLD VIS AND WIND=



000
FTUS45 KGGW 221100
TAFGDV
TAF
KGDV 221128Z 2212/2312 VRB05KT P6SM FEW250
     FM221500 12012KT P6SM FEW250
     FM230000 13017KT P6SM BKN170
     FM230300 12009KT P6SM BKN170
     FM230600 VRB06KT P6SM SCT170
      AMD LTD TO CLD VIS AND WIND=



000
FTUS45 KGGW 221100
TAFOLF
TAF
KOLF 221128Z 2212/2312 VRB05KT P6SM SKC
     FM221500 10010KT P6SM SKC
     FM230000 12014KT P6SM BKN170
     FM230300 10009KT P6SM BKN170=



000
FTUS45 KGGW 221100
TAFGGW
TAF
KGGW 221128Z 2212/2312 09010KT P6SM FEW250
     FM221800 12019G27KT P6SM SCT250
     FM230000 12017KT P6SM BKN170
     FM230600 09009KT P6SM BKN170=



000
FTUS45 KGGW 221100
TAFGDV
TAF
KGDV 221128Z 2212/2312 VRB05KT P6SM FEW250
     FM221500 12012KT P6SM FEW250
     FM230000 13017KT P6SM BKN170
     FM230300 12009KT P6SM BKN170
     FM230600 VRB06KT P6SM SCT170
      AMD LTD TO CLD VIS AND WIND=



000
FTUS45 KGGW 221100
TAFGGW
TAF
KGGW 221128Z 2212/2312 09010KT P6SM FEW250
     FM221800 12019G27KT P6SM SCT250
     FM230000 12017KT P6SM BKN170
     FM230600 09009KT P6SM BKN170=



000
FTUS45 KGGW 221100
TAFSDY
TAF
KSDY 221128Z 2212/2312 VRB04KT P6SM SKC
     FM221500 13010KT P6SM SKC
     FM230000 13015KT P6SM BKN170
     FM230300 12009KT P6SM BKN170
     FM230900 VRB04KT P6SM BKN180
      AMD LTD TO CLD VIS AND WIND=



000
FTUS45 KGGW 221100
TAFGDV
TAF
KGDV 221128Z 2212/2312 VRB05KT P6SM FEW250
     FM221500 12012KT P6SM FEW250
     FM230000 13017KT P6SM BKN170
     FM230300 12009KT P6SM BKN170
     FM230600 VRB06KT P6SM SCT170
      AMD LTD TO CLD VIS AND WIND=



000
FTUS45 KGGW 220500
TAFGDV
TAF
KGDV 220522Z 2206/2306 15006KT P6SM SKC
     FM221500 13012KT P6SM FEW250
     FM230000 13015KT P6SM BKN250
      AMD LTD TO CLD VIS AND WIND=



000
FTUS45 KGGW 220500
TAFSDY
TAF
KSDY 220522Z 2206/2306 VRB06KT P6SM SKC
     FM221500 14011KT P6SM SKC
     FM230000 13014KT P6SM BKN250
      AMD LTD TO CLD VIS AND WIND=



000
FTUS45 KGGW 220500
TAFGDV
TAF
KGDV 220522Z 2206/2306 15006KT P6SM SKC
     FM221500 13012KT P6SM FEW250
     FM230000 13015KT P6SM BKN250
      AMD LTD TO CLD VIS AND WIND=



000
FTUS45 KGGW 220500
TAFGDV
TAF
KGDV 220522Z 2206/2306 15006KT P6SM SKC
     FM221500 13012KT P6SM FEW250
     FM230000 13015KT P6SM BKN250
      AMD LTD TO CLD VIS AND WIND=



000
FTUS45 KGGW 220500
TAFGGW
TAF
KGGW 220522Z 2206/2306 11010KT P6SM SKC
     FM230000 12015KT P6SM BKN250=



000
FTUS45 KGGW 220500
TAFOLF
TAF
KOLF 220522Z 2206/2306 VRB06KT P6SM SKC
     FM221500 10011KT P6SM SKC
     FM230000 12013KT P6SM BKN250=



000
FTUS45 KGGW 220500
TAFSDY
TAF
KSDY 220522Z 2206/2306 VRB06KT P6SM SKC
     FM221500 14011KT P6SM SKC
     FM230000 13014KT P6SM BKN250
      AMD LTD TO CLD VIS AND WIND=



000
FTUS45 KGGW 220500
TAFOLF
TAF
KOLF 220522Z 2206/2306 VRB06KT P6SM SKC
     FM221500 10011KT P6SM SKC
     FM230000 12013KT P6SM BKN250=



000
FTUS45 KGGW 220500
TAFOLF
TAF
KOLF 220522Z 2206/2306 VRB06KT P6SM SKC
     FM221500 10011KT P6SM SKC
     FM230000 12013KT P6SM BKN250=



000
FTUS45 KGGW 220500
TAFGGW
TAF
KGGW 220522Z 2206/2306 11010KT P6SM SKC
     FM230000 12015KT P6SM BKN250=



000
FTUS45 KGGW 212300
TAFGGW
TAF
KGGW 212320Z 2200/2224 14015G25KT P6SM SKC
     FM220300 11009KT P6SM SKC
     FM221500 11015KT P6SM FEW250=



000
FTUS45 KGGW 212300
TAFSDY
TAF
KSDY 212320Z 2200/2224 VRB06KT P6SM SKC
     FM221500 14011KT P6SM SKC
      AMD LTD TO CLD VIS AND WIND=



000
FTUS45 KGGW 212300
TAFSDY
TAF
KSDY 212320Z 2200/2224 VRB06KT P6SM SKC
     FM221500 14011KT P6SM SKC
      AMD LTD TO CLD VIS AND WIND=



000
FTUS45 KGGW 212300
TAFGDV
TAF
KGDV 212320Z 2200/2224 12013KT P6SM SKC
     FM220300 13008KT P6SM SKC
     FM221500 13012KT P6SM FEW250
      AMD LTD TO CLD VIS AND WIND=



000
FTUS45 KGGW 212300
TAFOLF
TAF
KOLF 212320Z 2200/2224 12011KT P6SM SKC
     FM220300 10007KT P6SM SKC
     FM221500 10011KT P6SM SKC=



000
FTUS45 KGGW 212300
TAFOLF
TAF
KOLF 212320Z 2200/2224 12011KT P6SM SKC
     FM220300 10007KT P6SM SKC
     FM221500 10011KT P6SM SKC=



000
FTUS45 KGGW 212300
TAFOLF
TAF
KOLF 212320Z 2200/2224 12011KT P6SM SKC
     FM220300 10007KT P6SM SKC
     FM221500 10011KT P6SM SKC=



000
FTUS45 KGGW 212300
TAFGDV
TAF
KGDV 212320Z 2200/2224 12013KT P6SM SKC
     FM220300 13008KT P6SM SKC
     FM221500 13012KT P6SM FEW250
      AMD LTD TO CLD VIS AND WIND=



000
FTUS45 KGGW 212300
TAFGGW
TAF
KGGW 212320Z 2200/2224 14015G25KT P6SM SKC
     FM220300 11009KT P6SM SKC
     FM221500 11015KT P6SM FEW250=



000
FTUS45 KGGW 212300
TAFGDV
TAF
KGDV 212320Z 2200/2224 12013KT P6SM SKC
     FM220300 13008KT P6SM SKC
     FM221500 13012KT P6SM FEW250
      AMD LTD TO CLD VIS AND WIND=



000
FTUS45 KGGW 211700
TAFOLF
TAF
KOLF 211720Z 2118/2218 12007KT P6SM FEW250=



000
FTUS45 KGGW 211700
TAFGDV
TAF
KGDV 211720Z 2118/2218 13008KT P6SM FEW250
      AMD LTD TO CLD VIS AND WIND=



000
FTUS45 KGGW 211700
TAFGDV
TAF
KGDV 211720Z 2118/2218 13008KT P6SM FEW250
      AMD LTD TO CLD VIS AND WIND=



000
FTUS45 KGGW 211700
TAFSDY
TAF
KSDY 211720Z 2118/2218 VRB06KT P6SM FEW250
      AMD LTD TO CLD VIS AND WIND=



000
FTUS45 KGGW 211700
TAFOLF
TAF
KOLF 211720Z 2118/2218 12007KT P6SM FEW250=



000
FTUS45 KGGW 211700
TAFGGW
TAF
KGGW 211720Z 2118/2218 13012KT P6SM SKC=



000
FTUS45 KGGW 211700
TAFOLF
TAF
KOLF 211720Z 2118/2218 12007KT P6SM FEW250=



000
FTUS45 KGGW 211700
TAFGDV
TAF
KGDV 211720Z 2118/2218 13008KT P6SM FEW250
      AMD LTD TO CLD VIS AND WIND=



000
FTUS45 KGGW 211700
TAFOLF
TAF
KOLF 211720Z 2118/2218 12007KT P6SM FEW250=



000
FTUS45 KGGW 211700
TAFGGW
TAF
KGGW 211720Z 2118/2218 13012KT P6SM SKC=



000
FTUS45 KGGW 211700
TAFGDV
TAF
KGDV 211720Z 2118/2218 13008KT P6SM FEW250
      AMD LTD TO CLD VIS AND WIND=



000
FTUS45 KGGW 211700
TAFSDY
TAF
KSDY 211720Z 2118/2218 VRB06KT P6SM FEW250
      AMD LTD TO CLD VIS AND WIND=



000
FTUS45 KGGW 211100
TAFGDV
TAF
KGDV 211127Z 2112/2212 VRB04KT P6SM FEW250
     FM211800 13013KT P6SM FEW250
     FM220300 13007KT P6SM SKC
      AMD LTD TO CLD VIS AND WIND=



000
FTUS45 KGGW 211100
TAFSDY
TAF
KSDY 211127Z 2112/2212 VRB04KT P6SM FEW250
     FM212100 13013KT P6SM FEW250
     FM220300 VRB05KT P6SM FEW250
      AMD LTD TO CLD VIS AND WIND=



000
FTUS45 KGGW 211100
TAFGGW
TAF
KGGW 211127Z 2112/2212 11008KT P6SM FEW250
     FM211800 13012KT P6SM SKC
     FM220200 11008KT P6SM SKC=



000
FTUS45 KGGW 211100
TAFOLF
TAF
KOLF 211127Z 2112/2212 VRB05KT P6SM FEW250
     FM211800 12011KT P6SM FEW250
     FM220200 08005KT P6SM SKC=



000
FTUS45 KGGW 211100
TAFGDV
TAF
KGDV 211127Z 2112/2212 VRB04KT P6SM FEW250
     FM211800 13013KT P6SM FEW250
     FM220300 13007KT P6SM SKC
      AMD LTD TO CLD VIS AND WIND=



000
FTUS45 KGGW 211100
TAFOLF
TAF
KOLF 211127Z 2112/2212 VRB05KT P6SM FEW250
     FM211800 12011KT P6SM FEW250
     FM220200 08005KT P6SM SKC=



000
FTUS45 KGGW 210500
TAFSDY
TAF
KSDY 210525Z 2106/2206 VRB05KT P6SM SKC
     FM212100 13010KT P6SM SKC
      AMD LTD TO CLD VIS AND WIND=



000
FTUS45 KGGW 210500
TAFGGW
TAF
KGGW 210525Z 2106/2206 12008KT P6SM SKC
     FM211800 13013KT P6SM SKC=



000
FTUS45 KGGW 210500
TAFOLF
TAF
KOLF 210525Z 2106/2206 VRB04KT P6SM SKC
     FM211800 13009KT P6SM SKC=



000
FTUS45 KGGW 210500
TAFOLF
TAF
KOLF 210525Z 2106/2206 VRB04KT P6SM SKC
     FM211800 13009KT P6SM SKC=



000
FTUS45 KGGW 210500
TAFGDV
TAF
KGDV 210525Z 2106/2206 VRB03KT P6SM SKC
     FM211800 13009KT P6SM SKC
      AMD LTD TO CLD VIS AND WIND=



000
FTUS45 KGGW 210500
TAFOLF
TAF
KOLF 210525Z 2106/2206 VRB04KT P6SM SKC
     FM211800 13009KT P6SM SKC=



000
FTUS45 KGGW 210500
TAFGDV
TAF
KGDV 210525Z 2106/2206 VRB03KT P6SM SKC
     FM211800 13009KT P6SM SKC
      AMD LTD TO CLD VIS AND WIND=



000
FTUS45 KGGW 210500
TAFGGW
TAF
KGGW 210525Z 2106/2206 12008KT P6SM SKC
     FM211800 13013KT P6SM SKC=



000
FTUS45 KGGW 210500
TAFOLF
TAF
KOLF 210525Z 2106/2206 VRB04KT P6SM SKC
     FM211800 13009KT P6SM SKC=



000
FTUS45 KGGW 210500
TAFSDY
TAF
KSDY 210525Z 2106/2206 VRB05KT P6SM SKC
     FM212100 13010KT P6SM SKC
      AMD LTD TO CLD VIS AND WIND=



000
FTUS45 KGGW 210500
TAFGDV
TAF
KGDV 210525Z 2106/2206 VRB03KT P6SM SKC
     FM211800 13009KT P6SM SKC
      AMD LTD TO CLD VIS AND WIND=



000
FTUS45 KGGW 210500
TAFGDV
TAF
KGDV 210525Z 2106/2206 VRB03KT P6SM SKC
     FM211800 13009KT P6SM SKC
      AMD LTD TO CLD VIS AND WIND=



000
FTUS45 KGGW 202300
TAFOLF
TAF
KOLF 202320Z 2100/2124 VRB05KT P6SM SKC
     FM211800 13009KT P6SM SKC=



000
FTUS45 KGGW 202300
TAFSDY
TAF
KSDY 202320Z 2100/2124 VRB06KT P6SM SKC
     FM211800 13008KT P6SM SKC
      AMD LTD TO CLD VIS AND WIND=



000
FTUS45 KGGW 202300
TAFGDV
TAF
KGDV 202320Z 2100/2124 VRB06KT P6SM SKC
     FM211800 13009KT P6SM SKC
      AMD LTD TO CLD VIS AND WIND=



000
FTUS45 KGGW 202300
TAFGDV
TAF
KGDV 202320Z 2100/2124 VRB06KT P6SM SKC
     FM211800 13009KT P6SM SKC
      AMD LTD TO CLD VIS AND WIND=



000
FTUS45 KGGW 202300
TAFGDV
TAF
KGDV 202320Z 2100/2124 VRB06KT P6SM SKC
     FM211800 13009KT P6SM SKC
      AMD LTD TO CLD VIS AND WIND=



000
FTUS45 KGGW 202300
TAFSDY
TAF
KSDY 202320Z 2100/2124 VRB06KT P6SM SKC
     FM211800 13008KT P6SM SKC
      AMD LTD TO CLD VIS AND WIND=



000
FTUS45 KGGW 202300
TAFGGW
TAF
KGGW 202320Z 2100/2124 14010KT P6SM SKC
     FM211200 VRB06KT P6SM SKC
     FM211800 13013KT P6SM SKC=



000
FTUS45 KGGW 202300
TAFGDV
TAF
KGDV 202320Z 2100/2124 VRB06KT P6SM SKC
     FM211800 13009KT P6SM SKC
      AMD LTD TO CLD VIS AND WIND=



000
FTUS45 KGGW 202300
TAFGGW
TAF
KGGW 202320Z 2100/2124 14010KT P6SM SKC
     FM211200 VRB06KT P6SM SKC
     FM211800 13013KT P6SM SKC=



000
FTUS45 KGGW 202300
TAFOLF
TAF
KOLF 202320Z 2100/2124 VRB05KT P6SM SKC
     FM211800 13009KT P6SM SKC=



000
FTUS45 KGGW 202300
TAFOLF
TAF
KOLF 202320Z 2100/2124 VRB05KT P6SM SKC
     FM211800 13009KT P6SM SKC=



000
FTUS45 KGGW 202300
TAFOLF
TAF
KOLF 202320Z 2100/2124 VRB05KT P6SM SKC
     FM211800 13009KT P6SM SKC=



000
FTUS45 KGGW 201700
TAFSDY
TAF
KSDY 201724Z 2018/2118 VRB06KT P6SM SKC
      AMD LTD TO CLD VIS AND WIND=



000
FTUS45 KGGW 201700
TAFOLF
TAF
KOLF 201724Z 2018/2118 VRB06KT P6SM SKC=



000
FTUS45 KGGW 201700
TAFGDV
TAF
KGDV 201724Z 2018/2118 09007KT P6SM SKC
     FM211200 VRB03KT P6SM FEW250
      AMD LTD TO CLD VIS AND WIND=



000
FTUS45 KGGW 201700
TAFGDV
TAF
KGDV 201724Z 2018/2118 09007KT P6SM SKC
     FM211200 VRB03KT P6SM FEW250
      AMD LTD TO CLD VIS AND WIND=



000
FTUS45 KGGW 201700
TAFOLF
TAF
KOLF 201724Z 2018/2118 VRB06KT P6SM SKC=



000
FTUS45 KGGW 201700
TAFOLF
TAF
KOLF 201724Z 2018/2118 VRB06KT P6SM SKC=



000
FTUS45 KGGW 201700
TAFGGW
TAF
KGGW 201724Z 2018/2118 14009KT P6SM SKC
     FM210300 VRB05KT P6SM SKC=



000
FTUS45 KGGW 201700
TAFOLF
TAF
KOLF 201724Z 2018/2118 VRB06KT P6SM SKC=



000
FTUS45 KGGW 201700
TAFGDV
TAF
KGDV 201724Z 2018/2118 09007KT P6SM SKC
     FM211200 VRB03KT P6SM FEW250
      AMD LTD TO CLD VIS AND WIND=



000
FTUS45 KGGW 201700
TAFGGW
TAF
KGGW 201724Z 2018/2118 14009KT P6SM SKC
     FM210300 VRB05KT P6SM SKC=



000
FTUS45 KGGW 201700
TAFSDY
TAF
KSDY 201724Z 2018/2118 VRB06KT P6SM SKC
      AMD LTD TO CLD VIS AND WIND=



000
FTUS45 KGGW 201100
TAFGDV
TAF
KGDV 201127Z 2012/2112 VRB06KT P6SM FEW250
      AMD LTD TO CLD VIS AND WIND=



000
FTUS45 KGGW 201100
TAFOLF
TAF
KOLF 201127Z 2012/2112 VRB04KT P6SM FEW250=



000
FTUS45 KGGW 201100
TAFOLF
TAF
KOLF 201127Z 2012/2112 VRB04KT P6SM FEW250=



000
FTUS45 KGGW 201100
TAFGDV
TAF
KGDV 201127Z 2012/2112 VRB06KT P6SM FEW250
      AMD LTD TO CLD VIS AND WIND=



000
FTUS45 KGGW 201100
TAFSDY
TAF
KSDY 201127Z 2012/2112 10007KT P6SM FEW250
      AMD LTD TO CLD VIS AND WIND=



000
FTUS45 KGGW 201100
TAFGGW
TAF
KGGW 201127Z 2012/2112 10009KT P6SM FEW250=



    US Dept of Commerce
    National Oceanic and Atmospheric Administration
    National Weather Service
    1325 East West Highway
    Silver Spring, MD 20910
    Page Author: NWS Internet Services Team
Disclaimer
Information Quality
Credits
Glossary
Privacy Policy
Freedom of Information Act (FOIA)
About Us
Career Opportunities